Time;durP1;ratioP1;P1;durP2;ratioP2;P2;SDS_P1;SDS_P2;PMS_P1;PMS_P2;Temp;Humidity;BMP_temperature;BMP_pressure;BME280_temperature;BME280_humidity;BME280_pressure;Samples;Min_cycle;Max_cycle;Signal;HPM_P1;HPM_P2
2023/04/22 00:01:23;;;;;;;3.22;2.92;;;;;13.70;97832.00;;;;5033112;28;20107;-63
2023/04/22 00:03:50;;;;;;;4.70;3.03;;;;;13.70;97826.00;;;;5033182;28;20048;-61
2023/04/22 00:06:18;;;;;;;3.83;3.00;;;;;13.50;97823.00;;;;5033053;28;20087;-62
2023/04/22 00:08:44;;;;;;;3.90;2.63;;;;;13.50;97823.00;;;;5033215;28;20046;-61
2023/04/22 00:11:11;;;;;;;3.58;3.00;;;;;13.60;97821.00;;;;5031990;28;20049;-62
2023/04/22 00:13:37;;;;;;;5.43;3.60;;;;;13.60;97823.00;;;;5033635;28;20434;-62
2023/04/22 00:16:05;;;;;;;4.32;3.10;;;;;13.60;97824.00;;;;5033700;28;20052;-62
2023/04/22 00:18:35;;;;;;;3.58;3.25;;;;;13.50;97829.00;;;;5033222;28;20120;-61
2023/04/22 00:21:03;;;;;;;6.10;3.15;;;;;13.60;97829.00;;;;5032969;28;20052;-61
2023/04/22 00:23:30;;;;;;;4.97;2.92;;;;;13.60;97820.00;;;;5032914;28;20049;-59
2023/04/22 00:25:57;;;;;;;3.20;2.90;;;;;13.60;97817.00;;;;5032923;28;20048;-60
2023/04/22 00:28:23;;;;;;;3.15;2.85;;;;;13.60;97821.00;;;;5032578;28;20068;-60
2023/04/22 00:30:49;;;;;;;3.95;2.60;;;;;13.60;97826.00;;;;5031295;28;20057;-61
2023/04/22 00:33:16;;;;;;;5.10;2.72;;;;;13.50;97817.00;;;;5032681;28;20402;-61
2023/04/22 00:35:45;;;;;;;3.55;3.00;;;;;13.40;97821.00;;;;5031530;28;20041;-60
2023/04/22 00:38:12;;;;;;;3.72;2.90;;;;;13.40;97828.00;;;;5032527;28;20103;-61
2023/04/22 00:40:38;;;;;;;3.22;2.22;;;;;13.30;97827.00;;;;5032299;28;20490;-61
2023/04/22 00:43:07;;;;;;;5.20;2.50;;;;;13.20;97825.00;;;;5032221;28;20124;-61
2023/04/22 00:45:35;;;;;;;3.78;2.92;;;;;13.10;97830.00;;;;5032273;28;20083;-61
2023/04/22 00:48:02;;;;;;;3.20;2.88;;;;;13.00;97837.00;;;;5031329;28;20049;-61
2023/04/22 00:50:29;;;;;;;4.03;2.97;;;;;13.10;97834.00;;;;5032255;28;20064;-60
2023/04/22 00:52:56;;;;;;;3.65;3.10;;;;;13.10;97835.00;;;;5031100;28;20558;-61
2023/04/22 00:55:22;;;;;;;3.47;2.80;;;;;13.00;97828.00;;;;5032485;28;20041;-60
2023/04/22 00:57:50;;;;;;;3.95;2.92;;;;;13.00;97836.00;;;;5031117;28;20049;-61
2023/04/22 01:00:19;;;;;;;3.95;3.08;;;;;13.00;97836.00;;;;5033958;28;20054;-62
2023/04/22 01:02:46;;;;;;;3.25;2.85;;;;;12.80;97832.00;;;;5035572;28;20045;-61
2023/04/22 01:05:13;;;;;;;3.22;2.80;;;;;12.80;97831.00;;;;5033320;28;20095;-61
2023/04/22 01:07:39;;;;;;;3.88;3.10;;;;;12.80;97824.00;;;;5035865;28;20065;-61
2023/04/22 01:10:06;;;;;;;4.18;2.97;;;;;12.60;97834.00;;;;5033585;28;20037;-61
2023/04/22 01:12:33;;;;;;;3.17;2.88;;;;;12.70;97835.00;;;;5033000;28;20137;-61
2023/04/22 01:15:01;;;;;;;5.30;2.55;;;;;12.80;97827.00;;;;5033520;28;20041;-61
2023/04/22 01:17:33;;;;;;;6.43;3.10;;;;;12.90;97831.00;;;;5031534;28;20483;-60
2023/04/22 01:20:00;;;;;;;3.35;2.90;;;;;12.80;97830.00;;;;5031731;28;20049;-61
2023/04/22 01:22:34;;;;;;;4.85;2.85;;;;;12.90;97824.00;;;;5032027;28;20124;-61
2023/04/22 01:25:01;;;;;;;6.43;4.22;;;;;12.70;97827.00;;;;5032025;28;20041;-61
2023/04/22 01:27:28;;;;;;;4.18;3.10;;;;;12.70;97827.00;;;;5031793;28;20050;-61
2023/04/22 01:29:55;;;;;;;6.30;3.30;;;;;12.70;97817.00;;;;5031797;28;20048;-60
2023/04/22 01:32:21;;;;;;;6.53;4.40;;;;;12.80;97826.00;;;;5031943;28;20064;-60
2023/04/22 01:34:48;;;;;;;4.10;3.47;;;;;12.70;97820.00;;;;5030826;28;20079;-62
2023/04/22 01:37:16;;;;;;;3.63;3.05;;;;;12.70;97821.00;;;;5032206;28;20053;-60
2023/04/22 01:39:45;;;;;;;3.65;3.30;;;;;12.90;97821.00;;;;5030771;28;20050;-62
2023/04/22 01:42:13;;;;;;;3.50;2.92;;;;;12.90;97822.00;;;;5030555;28;20053;-62
2023/04/22 01:44:39;;;;;;;4.05;3.38;;;;;12.80;97822.00;;;;5030838;28;20115;-61
2023/04/22 01:47:06;;;;;;;5.38;3.08;;;;;12.90;97817.00;;;;5030949;28;20053;-61
2023/04/22 01:49:33;;;;;;;5.18;3.13;;;;;12.80;97817.00;;;;5032032;28;20041;-60
2023/04/22 01:52:00;;;;;;;3.10;2.80;;;;;12.60;97826.00;;;;5031976;28;20049;-61
2023/04/22 01:54:26;;;;;;;4.57;3.33;;;;;12.60;97822.00;;;;5030722;28;20392;-61
2023/04/22 01:56:53;;;;;;;3.58;3.05;;;;;12.50;97816.00;;;;5033758;28;20409;-61
2023/04/22 01:59:21;;;;;;;5.70;3.53;;;;;12.60;97819.00;;;;5033988;28;20041;-61
2023/04/22 02:01:49;;;;;;;4.25;2.88;;;;;12.50;97824.00;;;;5035355;28;20120;-62
2023/04/22 02:04:17;;;;;;;4.97;3.03;;;;;12.50;97821.00;;;;5034058;28;20083;-61
2023/04/22 02:06:43;;;;;;;4.75;3.22;;;;;12.40;97825.00;;;;5035366;28;20033;-61
2023/04/22 02:09:10;;;;;;;5.38;3.53;;;;;12.30;97824.00;;;;5033689;28;20049;-61
2023/04/22 02:11:37;;;;;;;6.53;3.42;;;;;12.30;97830.00;;;;5034062;28;20080;-61
2023/04/22 02:14:03;;;;;;;5.75;3.70;;;;;12.30;97832.00;;;;5035262;28;20535;-61
2023/04/22 02:16:30;;;;;;;4.13;2.92;;;;;12.40;97833.00;;;;5034131;28;20072;-62
2023/04/22 02:18:57;;;;;;;3.83;2.85;;;;;12.40;97836.00;;;;5034880;28;20583;-61
2023/04/22 02:21:23;;;;;;;3.90;3.25;;;;;12.40;97831.00;;;;5033876;28;20099;-61
2023/04/22 02:23:50;;;;;;;3.35;3.05;;;;;12.50;97833.00;;;;5033822;28;20498;-60
2023/04/22 02:26:16;;;;;;;4.65;3.35;;;;;12.50;97841.00;;;;5034095;28;20042;-60
2023/04/22 02:28:43;;;;;;;7.93;3.00;;;;;12.40;97839.00;;;;5033922;28;20057;-60
2023/04/22 02:31:09;;;;;;;3.80;2.88;;;;;12.30;97834.00;;;;5033730;28;20076;-61
2023/04/22 02:33:39;;;;;;;3.92;3.03;;;;;12.30;97841.00;;;;5033779;28;20053;-61
2023/04/22 02:36:08;;;;;;;3.95;3.08;;;;;12.30;97834.00;;;;5033696;28;20048;-62
2023/04/22 02:38:34;;;;;;;3.58;3.28;;;;;12.20;97834.00;;;;5034584;28;20041;-61
2023/04/22 02:41:01;;;;;;;5.20;3.83;;;;;12.10;97839.00;;;;5034578;28;20049;-61
2023/04/22 02:43:28;;;;;;;4.97;3.22;;;;;12.10;97827.00;;;;5033986;28;20053;-62
2023/04/22 02:45:55;;;;;;;4.15;3.28;;;;;12.10;97833.00;;;;5034746;28;20045;-62
2023/04/22 02:48:22;;;;;;;4.78;3.40;;;;;12.10;97831.00;;;;5033312;28;20055;-63
2023/04/22 02:50:49;;;;;;;3.58;2.88;;;;;12.00;97828.00;;;;5034760;28;20053;-61
2023/04/22 02:53:16;;;;;;;4.00;3.17;;;;;12.00;97832.00;;;;5035552;28;20103;-61
2023/04/22 02:55:43;;;;;;;3.67;2.90;;;;;12.00;97838.00;;;;5035372;28;20057;-61
2023/04/22 02:58:09;;;;;;;4.28;3.47;;;;;11.90;97833.00;;;;5035595;28;20049;-62
2023/04/22 03:00:36;;;;;;;4.75;3.03;;;;;11.90;97831.00;;;;5033842;28;20057;-62
2023/04/22 03:03:02;;;;;;;5.07;3.22;;;;;11.90;97842.00;;;;5034867;28;20107;-62
2023/04/22 03:05:32;;;;;;;9.25;3.35;;;;;11.90;97839.00;;;;5034978;28;20399;-62
2023/04/22 03:08:00;;;;;;;4.32;2.83;;;;;11.80;97837.00;;;;5033923;28;20122;-62
2023/04/22 03:10:28;;;;;;;5.18;3.30;;;;;11.80;97834.00;;;;5037467;28;20421;-62
2023/04/22 03:12:55;;;;;;;4.47;3.00;;;;;11.90;97839.00;;;;5036877;28;20200;-62
2023/04/22 03:15:21;;;;;;;3.28;2.97;;;;;11.80;97841.00;;;;5036892;28;20044;-61
2023/04/22 03:17:48;;;;;;;2.90;2.60;;;;;11.80;97840.00;;;;5037300;28;20045;-62
2023/04/22 03:20:16;;;;;;;4.55;3.00;;;;;11.80;97830.00;;;;5034372;28;20053;-61
2023/04/22 03:22:43;;;;;;;19.77;10.93;;;;;11.80;97839.00;;;;5037771;28;20060;-61
2023/04/22 03:25:11;;;;;;;3.92;3.50;;;;;11.80;97833.00;;;;5037236;28;20045;-62
2023/04/22 03:27:38;;;;;;;5.00;3.10;;;;;11.70;97831.00;;;;5034159;28;20145;-61
2023/04/22 03:30:06;;;;;;;3.85;3.40;;;;;11.60;97828.00;;;;5032421;28;20418;-62
2023/04/22 03:32:32;;;;;;;5.18;3.35;;;;;11.50;97830.00;;;;5032532;28;20042;-62
2023/04/22 03:35:21;;;;;;;4.30;3.40;;;;;11.40;97822.00;;;;5033912;28;20041;-62
2023/04/22 03:37:49;;;;;;;3.50;2.92;;;;;11.30;97825.00;;;;5033780;28;20069;-62
2023/04/22 03:40:20;;;;;;;4.38;3.35;;;;;11.30;97823.00;;;;5032341;28;20053;-62
2023/04/22 03:42:47;;;;;;;4.60;3.17;;;;;11.30;97827.00;;;;5032120;28;20115;-61
2023/04/22 03:45:17;;;;;;;4.07;3.22;;;;;11.20;97820.00;;;;5032201;28;20046;-62
2023/04/22 03:47:49;;;;;;;4.00;3.25;;;;;11.10;97817.00;;;;5032214;28;20571;-62
2023/04/22 03:50:21;;;;;;;3.58;3.20;;;;;11.10;97812.00;;;;5032026;28;20045;-61
2023/04/22 03:52:50;;;;;;;3.75;3.30;;;;;11.00;97814.00;;;;5033324;28;20552;-62
2023/04/22 03:55:19;;;;;;;4.68;2.85;;;;;10.90;97806.00;;;;5033317;28;20437;-62
2023/04/22 03:57:49;;;;;;;5.25;3.72;;;;;10.90;97806.00;;;;5031877;28;20049;-62
2023/04/22 04:00:15;;;;;;;6.30;3.80;;;;;10.90;97809.00;;;;5031699;28;20045;-62
2023/04/22 04:02:49;;;;;;;5.50;3.58;;;;;10.80;97801.00;;;;5031781;28;20145;-62
2023/04/22 04:05:19;;;;;;;4.45;3.40;;;;;10.80;97809.00;;;;5031816;28;20045;-62
2023/04/22 04:07:46;;;;;;;4.80;3.45;;;;;10.80;97816.00;;;;5031695;28;20049;-62
2023/04/22 04:10:12;;;;;;;5.82;3.60;;;;;10.90;97809.00;;;;5031555;28;20095;-63
2023/04/22 04:12:39;;;;;;;4.63;3.45;;;;;10.90;97805.00;;;;5031609;28;20050;-61
2023/04/22 04:15:06;;;;;;;6.97;3.70;;;;;11.00;97805.00;;;;5015315;28;20073;-61
2023/04/22 04:17:34;;;;;;;5.05;3.83;;;;;11.10;97811.00;;;;5031518;28;20045;-61
2023/04/22 04:20:02;;;;;;;4.97;3.70;;;;;11.00;97798.00;;;;5031285;28;20069;-61
2023/04/22 04:22:29;;;;;;;4.38;3.60;;;;;11.00;97789.00;;;;5031563;28;20418;-62
2023/04/22 04:25:00;;;;;;;3.85;3.50;;;;;11.00;97793.00;;;;5031502;28;20053;-61
2023/04/22 04:27:33;;;;;;;4.30;3.90;;;;;11.00;97781.00;;;;5031345;28;20049;-61
2023/04/22 04:30:00;;;;;;;5.38;3.67;;;;;11.10;97787.00;;;;5031201;28;20079;-62
2023/04/22 04:32:48;;;;;;;6.75;4.35;;;;;11.10;97781.00;;;;5031217;28;20601;-62
2023/04/22 04:35:17;;;;;;;4.80;4.03;;;;;11.00;97776.00;;;;5031159;28;20111;-61
2023/04/22 04:37:49;;;;;;;4.07;3.40;;;;;11.10;97776.00;;;;5033368;28;20050;-61
2023/04/22 04:40:16;;;;;;;5.10;3.63;;;;;11.20;97782.00;;;;5032697;28;20372;-62
2023/04/22 04:42:57;;;;;;;3.92;3.38;;;;;11.20;97777.00;;;;5031021;28;20100;-63
2023/04/22 04:45:31;;;;;;;3.58;3.28;;;;;11.10;97785.00;;;;5046908;28;20139;-61
2023/04/22 04:47:59;;;;;;;4.32;3.17;;;;;11.20;97785.00;;;;5050852;28;20049;-60
2023/04/22 04:50:32;;;;;;;4.60;3.50;;;;;11.30;97791.00;;;;5050857;28;20087;-60
2023/04/22 04:53:01;;;;;;;7.00;3.35;;;;;11.30;97797.00;;;;5050799;28;20053;-61
2023/04/22 04:55:36;;;;;;;5.85;3.30;;;;;11.30;97801.00;;;;5051004;28;20049;-61
2023/04/22 04:58:08;;;;;;;3.55;3.25;;;;;11.30;97797.00;;;;5050876;28;20065;-60
2023/04/22 05:00:34;;;;;;;5.90;3.20;;;;;11.40;97803.00;;;;5051933;28;20512;-62
2023/04/22 05:03:01;;;;;;;4.97;3.40;;;;;11.40;97807.00;;;;5034128;28;20413;-61
2023/04/22 05:05:29;;;;;;;4.25;3.70;;;;;11.30;97812.00;;;;5050872;28;20131;-61
2023/04/22 05:07:56;;;;;;;4.35;3.60;;;;;11.40;97815.00;;;;5050697;28;20045;-61
2023/04/22 05:10:24;;;;;;;4.90;3.38;;;;;11.40;97812.00;;;;5050471;28;20099;-62
2023/04/22 05:12:51;;;;;;;5.25;3.35;;;;;11.40;97817.00;;;;5050544;28;20083;-60
2023/04/22 05:15:22;;;;;;;5.70;3.45;;;;;11.30;97822.00;;;;5034970;28;20044;-61
2023/04/22 05:17:48;;;;;;;5.80;3.30;;;;;11.30;97828.00;;;;5051930;28;20555;-60
2023/04/22 05:20:15;;;;;;;4.00;3.10;;;;;11.30;97827.00;;;;5050279;28;20041;-61
2023/04/22 05:22:43;;;;;;;4.13;3.70;;;;;11.40;97825.00;;;;5050588;28;20136;-61
2023/04/22 05:25:10;;;;;;;4.80;3.60;;;;;11.40;97824.00;;;;5050717;28;20045;-61
2023/04/22 05:27:45;;;;;;;4.05;3.33;;;;;11.30;97827.00;;;;5050544;28;20037;-61
2023/04/22 05:30:13;;;;;;;4.20;3.45;;;;;11.20;97822.00;;;;5051142;28;20087;-61
2023/04/22 05:32:39;;;;;;;4.25;3.40;;;;;11.20;97825.00;;;;5054437;28;20048;-62
2023/04/22 05:35:07;;;;;;;4.45;3.15;;;;;11.20;97825.00;;;;5054314;28;20095;-62
2023/04/22 05:37:34;;;;;;;4.28;3.88;;;;;11.20;97823.00;;;;5055731;28;20045;-63
2023/04/22 05:40:00;;;;;;;4.28;3.88;;;;;11.30;97828.00;;;;5055479;28;20076;-62
2023/04/22 05:42:28;;;;;;;5.50;3.72;;;;;11.40;97823.00;;;;5054342;28;20048;-62
2023/04/22 05:44:55;;;;;;;4.70;3.63;;;;;11.40;97832.00;;;;5054421;28;20044;-62
2023/04/22 05:47:21;;;;;;;3.88;3.45;;;;;11.50;97823.00;;;;5037759;28;20049;-62
2023/04/22 05:49:51;;;;;;;5.68;4.28;;;;;11.60;97829.00;;;;5054051;28;20076;-62
2023/04/22 05:52:28;;;;;;;9.27;3.95;;;;;11.80;97828.00;;;;5038979;28;20049;-62
2023/04/22 05:55:01;;;;;;;9.05;3.88;;;;;11.90;97825.00;;;;5054432;28;20606;-61
2023/04/22 05:57:28;;;;;;;4.20;3.53;;;;;12.10;97828.00;;;;5054092;28;20041;-62
2023/04/22 05:59:59;;;;;;;7.90;4.00;;;;;12.20;97837.00;;;;5053951;28;20049;-61
2023/04/22 06:02:25;;;;;;;5.47;4.60;;;;;12.40;97835.00;;;;5054012;28;20135;-61
2023/04/22 06:04:52;;;;;;;6.07;4.00;;;;;12.40;97824.00;;;;5053769;28;20052;-61
2023/04/22 06:07:20;;;;;;;9.32;4.00;;;;;12.60;97823.00;;;;5053845;28;20064;-62
2023/04/22 06:09:47;;;;;;;5.50;3.88;;;;;12.70;97816.00;;;;5054951;28;20048;-62
2023/04/22 06:12:14;;;;;;;7.13;4.55;;;;;12.80;97819.00;;;;5055068;28;20102;-62
2023/04/22 06:14:40;;;;;;;6.47;4.90;;;;;12.90;97823.00;;;;5055059;28;20100;-61
2023/04/22 06:17:08;;;;;;;5.13;4.63;;;;;12.90;97822.00;;;;5053780;28;20505;-61
2023/04/22 06:19:35;;;;;;;5.82;5.22;;;;;13.20;97803.00;;;;5053524;28;20040;-61
2023/04/22 06:22:02;;;;;;;6.78;5.40;;;;;13.40;97818.00;;;;5054857;28;20049;-62
2023/04/22 06:24:29;;;;;;;6.07;4.82;;;;;13.40;97822.00;;;;5053683;28;20045;-61
2023/04/22 06:26:56;;;;;;;5.30;4.80;;;;;13.50;97824.00;;;;5053364;28;20041;-62
2023/04/22 06:29:25;;;;;;;6.45;4.75;;;;;13.70;97824.00;;;;5053354;28;20406;-62
2023/04/22 06:31:54;;;;;;;5.32;3.97;;;;;13.80;97830.00;;;;5054799;28;20033;-61
2023/04/22 06:34:22;;;;;;;5.63;3.53;;;;;13.80;97821.00;;;;5053429;28;20049;-61
2023/04/22 06:36:50;;;;;;;4.03;3.55;;;;;13.90;97826.00;;;;5053204;28;20044;-61
2023/04/22 06:39:16;;;;;;;5.10;4.20;;;;;14.00;97828.00;;;;5053027;28;20363;-62
2023/04/22 06:41:43;;;;;;;5.93;3.78;;;;;14.10;97830.00;;;;5054368;28;20056;-62
2023/04/22 06:44:31;;;;;;;4.25;3.78;;;;;14.30;97825.00;;;;5053773;28;20146;-62
2023/04/22 06:47:15;;;;;;;7.03;3.75;;;;;14.40;97828.00;;;;5054826;28;20132;-61
2023/04/22 06:49:47;;;;;;;4.05;3.63;;;;;14.50;97821.00;;;;5053346;28;20071;-61
2023/04/22 06:52:26;;;;;;;3.40;3.10;;;;;14.80;97825.00;;;;5053354;28;20045;-62
2023/04/22 06:54:56;;;;;;;6.20;3.17;;;;;14.90;97824.00;;;;5053155;28;20095;-61
2023/04/22 06:57:22;;;;;;;4.35;2.97;;;;;15.20;97832.00;;;;5054505;28;20486;-61
2023/04/22 06:59:49;;;;;;;3.97;3.17;;;;;15.30;97828.00;;;;5054321;28;20123;-63
2023/04/22 07:02:16;;;;;;;3.20;2.88;;;;;15.30;97827.00;;;;5055637;28;20045;-62
2023/04/22 07:04:43;;;;;;;6.65;2.80;;;;;15.30;97829.00;;;;5055301;28;20075;-62
2023/04/22 07:07:10;;;;;;;2.28;2.08;;;;;15.40;97840.00;;;;5039493;28;20094;-61
2023/04/22 07:09:38;;;;;;;3.65;2.55;;;;;15.60;97841.00;;;;5055732;28;20045;-62
2023/04/22 07:12:05;;;;;;;2.92;2.20;;;;;15.70;97831.00;;;;5055738;28;20047;-62
2023/04/22 07:14:32;;;;;;;2.53;2.13;;;;;15.80;97842.00;;;;5054580;28;20049;-62
2023/04/22 07:16:59;;;;;;;3.45;2.13;;;;;15.90;97828.00;;;;5054249;28;20091;-62
2023/04/22 07:19:25;;;;;;;2.70;2.10;;;;;16.00;97833.00;;;;5054526;28;20056;-62
2023/04/22 07:21:52;;;;;;;2.25;1.90;;;;;16.10;97830.00;;;;5056913;28;20090;-62
2023/04/22 07:24:19;;;;;;;2.33;2.00;;;;;16.20;97838.00;;;;5057565;28;20056;-62
2023/04/22 07:26:45;;;;;;;8.82;2.28;;;;;16.40;97825.00;;;;5057082;28;20036;-63
2023/04/22 07:29:12;;;;;;;2.45;2.13;;;;;16.50;97835.00;;;;5057466;28;20044;-62
2023/04/22 07:31:39;;;;;;;2.20;1.90;;;;;16.60;97832.00;;;;5056909;28;20041;-62
2023/04/22 07:34:05;;;;;;;2.05;1.85;;;;;16.80;97837.00;;;;5055547;28;20048;-62
2023/04/22 07:36:32;;;;;;;2.30;2.10;;;;;16.90;97828.00;;;;5055284;28;20041;-61
2023/04/22 07:38:59;;;;;;;2.47;1.88;;;;;17.00;97829.00;;;;5057357;28;20606;-62
2023/04/22 07:41:25;;;;;;;3.17;2.17;;;;;17.20;97836.00;;;;5057376;28;20052;-62
2023/04/22 07:43:52;;;;;;;4.28;2.50;;;;;17.40;97823.00;;;;5057614;28;20181;-62
2023/04/22 07:46:18;;;;;;;2.80;1.80;;;;;17.60;97828.00;;;;5056332;28;20452;-62
2023/04/22 07:48:45;;;;;;;5.03;2.10;;;;;17.80;97820.00;;;;5057136;28;20041;-61
2023/04/22 07:51:12;;;;;;;2.10;1.90;;;;;18.00;97821.00;;;;5055471;28;20048;-62
2023/04/22 07:53:39;;;;;;;3.83;2.45;;;;;18.30;97826.00;;;;5055161;28;20405;-62
2023/04/22 07:56:05;;;;;;;1.20;1.10;;;;;18.50;97822.00;;;;5053348;28;20467;-62
2023/04/22 07:58:32;;;;;;;3.78;1.30;;;;;18.70;97831.00;;;;5053645;28;20041;-63
2023/04/22 08:00:58;;;;;;;1.95;1.63;;;;;19.00;97829.00;;;;5053300;28;20049;-62
2023/04/22 08:03:25;;;;;;;4.15;1.50;;;;;19.30;97826.00;;;;5053611;28;20560;-62
2023/04/22 08:05:52;;;;;;;3.00;1.40;;;;;19.50;97825.00;;;;5053846;28;20044;-61
2023/04/22 08:08:19;;;;;;;5.88;1.55;;;;;19.70;97812.00;;;;5053653;28;20056;-62
2023/04/22 08:10:45;;;;;;;2.35;1.50;;;;;19.80;97827.00;;;;5053063;28;20071;-62
2023/04/22 08:13:12;;;;;;;2.28;1.17;;;;;19.90;97818.00;;;;5053259;28;20072;-62
2023/04/22 08:15:38;;;;;;;2.60;1.92;;;;;20.10;97818.00;;;;5053481;28;20049;-62
2023/04/22 08:18:05;;;;;;;3.20;1.40;;;;;20.20;97816.00;;;;5053429;28;20120;-61
2023/04/22 08:20:32;;;;;;;1.30;1.20;;;;;20.40;97813.00;;;;5052998;28;20040;-62
2023/04/22 08:22:59;;;;;;;1.30;1.20;;;;;20.60;97821.00;;;;5053008;28;20064;-61
2023/04/22 08:25:27;;;;;;;1.30;1.20;;;;;20.80;97820.00;;;;5053123;28;20075;-62
2023/04/22 08:27:53;;;;;;;2.53;1.50;;;;;20.80;97817.00;;;;5052383;28;20041;-61
2023/04/22 08:30:20;;;;;;;2.85;1.02;;;;;20.90;97819.00;;;;5052222;28;20063;-61
2023/04/22 08:32:47;;;;;;;2.20;1.23;;;;;20.90;97811.00;;;;5052483;28;20052;-61
2023/04/22 08:35:13;;;;;;;1.20;1.10;;;;;21.00;97812.00;;;;5052767;28;20045;-61
2023/04/22 08:37:40;;;;;;;2.88;1.38;;;;;21.10;97813.00;;;;5053047;28;20351;-61
2023/04/22 08:40:07;;;;;;;1.45;1.35;;;;;21.10;97818.00;;;;5052442;28;20053;-60
2023/04/22 08:42:35;;;;;;;2.92;1.35;;;;;21.10;97819.00;;;;5052527;28;20490;-60
2023/04/22 08:45:03;;;;;;;2.05;1.35;;;;;21.10;97828.00;;;;5052366;28;20513;-61
2023/04/22 08:47:33;;;;;;;1.65;1.23;;;;;21.20;97819.00;;;;5050899;28;20056;-61
2023/04/22 08:50:02;;;;;;;2.17;1.30;;;;;21.10;97821.00;;;;5052104;28;20067;-62
2023/04/22 08:52:29;;;;;;;1.65;1.55;;;;;21.00;97823.00;;;;5050955;28;20056;-62
2023/04/22 08:54:56;;;;;;;1.35;1.02;;;;;21.00;97823.00;;;;5052067;28;20441;-62
2023/04/22 08:57:23;;;;;;;2.38;1.35;;;;;20.90;97822.00;;;;5052045;28;20041;-62
2023/04/22 08:59:50;;;;;;;2.53;1.33;;;;;20.90;97824.00;;;;5052200;28;20041;-62
2023/04/22 09:02:19;;;;;;;3.15;1.60;;;;;20.90;97820.00;;;;5051885;28;20049;-62
2023/04/22 09:04:48;;;;;;;2.00;1.50;;;;;20.90;97819.00;;;;5050694;28;20064;-62
2023/04/22 09:07:26;;;;;;;2.20;1.40;;;;;20.90;97813.00;;;;5052032;28;20067;-61
2023/04/22 09:09:54;;;;;;;1.75;1.30;;;;;20.90;97815.00;;;;5051510;28;20071;-61
2023/04/22 09:12:22;;;;;;;2.88;1.25;;;;;20.90;97809.00;;;;5051685;28;20049;-60
2023/04/22 09:14:48;;;;;;;2.25;2.05;;;;;21.10;97812.00;;;;5050333;28;20346;-61
2023/04/22 09:17:17;;;;;;;1.98;1.80;;;;;21.20;97803.00;;;;5051416;28;20083;-61
2023/04/22 09:19:44;;;;;;;5.63;1.80;;;;;21.30;97801.00;;;;5051127;28;20049;-61
2023/04/22 09:22:14;;;;;;;5.47;1.98;;;;;21.30;97795.00;;;;5051606;28;20508;-61
2023/04/22 09:24:49;;;;;;;6.22;1.77;;;;;21.40;97807.00;;;;5051577;28;20049;-61
2023/04/22 09:27:17;;;;;;;1.55;1.40;;;;;21.50;97799.00;;;;5051819;28;20038;-60
2023/04/22 09:29:48;;;;;;;4.07;1.70;;;;;21.50;97792.00;;;;5051789;28;20159;-61
2023/04/22 09:32:16;;;;;;;1.98;1.40;;;;;21.60;97801.00;;;;5051856;28;20052;-61
2023/04/22 09:34:50;;;;;;;2.00;1.55;;;;;21.80;97799.00;;;;5051893;28;20409;-61
2023/04/22 09:37:20;;;;;;;4.00;1.70;;;;;21.90;97799.00;;;;5051919;28;20551;-60
2023/04/22 09:39:50;;;;;;;1.70;1.42;;;;;22.00;97793.00;;;;5051654;28;20801;-60
2023/04/22 09:42:17;;;;;;;1.48;1.23;;;;;22.00;97797.00;;;;5033935;28;20049;-60
2023/04/22 09:44:48;;;;;;;2.88;1.50;;;;;22.10;97804.00;;;;5051685;28;20041;-60
2023/04/22 09:47:15;;;;;;;2.53;1.38;;;;;22.10;97801.00;;;;5051953;28;20048;-61
2023/04/22 09:49:46;;;;;;;2.88;1.30;;;;;22.00;97811.00;;;;5051560;28;20492;-60
2023/04/22 09:52:23;;;;;;;4.82;1.40;;;;;22.00;97806.00;;;;5051791;28;20041;-60
2023/04/22 09:54:50;;;;;;;2.38;1.00;;;;;22.00;97799.00;;;;5051879;28;20045;-62
2023/04/22 09:57:17;;;;;;;1.48;1.35;;;;;22.20;97799.00;;;;5051682;28;20060;-61
2023/04/22 09:59:44;;;;;;;1.45;1.30;;;;;22.40;97808.00;;;;5050073;28;20072;-62
2023/04/22 10:02:11;;;;;;;4.15;1.70;;;;;22.40;97810.00;;;;5051553;28;20048;-61
2023/04/22 10:04:37;;;;;;;3.17;1.40;;;;;22.40;97794.00;;;;5051383;28;20069;-60
2023/04/22 10:07:04;;;;;;;2.70;1.60;;;;;22.40;97795.00;;;;5051560;28;20544;-60
2023/04/22 10:09:31;;;;;;;2.10;1.70;;;;;22.30;97798.00;;;;5049638;28;20048;-60
2023/04/22 10:11:58;;;;;;;4.22;2.20;;;;;22.40;97806.00;;;;5050601;28;20045;-60
2023/04/22 10:14:25;;;;;;;3.08;1.63;;;;;22.50;97795.00;;;;5051233;28;20498;-61
2023/04/22 10:16:56;;;;;;;1.65;1.50;;;;;22.60;97803.00;;;;5052030;28;20041;-60
2023/04/22 10:19:25;;;;;;;2.15;1.90;;;;;22.60;97795.00;;;;5053963;28;20103;-60
2023/04/22 10:21:55;;;;;;;1.85;1.63;;;;;22.80;97796.00;;;;5055198;28;20490;-60
2023/04/22 10:24:25;;;;;;;2.33;1.48;;;;;22.90;97799.00;;;;5054985;28;20049;-60
2023/04/22 10:27:01;;;;;;;2.15;1.48;;;;;23.10;97794.00;;;;5054905;28;20045;-60
2023/04/22 10:29:37;;;;;;;3.15;1.70;;;;;23.30;97800.00;;;;5054713;28;20045;-60
2023/04/22 10:32:22;;;;;;;3.50;2.28;;;;;23.40;97802.00;;;;5055052;28;20497;-60
2023/04/22 10:34:49;;;;;;;2.40;1.50;;;;;23.60;97793.00;;;;5054972;28;20498;-60
2023/04/22 10:37:18;;;;;;;2.65;1.30;;;;;23.70;97805.00;;;;5054851;28;20144;-60
2023/04/22 10:40:06;;;;;;;3.35;1.20;;;;;23.70;97821.00;;;;5054748;28;20509;-59
2023/04/22 10:42:34;;;;;;;2.40;1.15;;;;;23.60;97823.00;;;;5054589;28;20044;-59
2023/04/22 10:45:03;;;;;;;5.82;1.50;;;;;23.50;97808.00;;;;5053500;28;20464;-59
2023/04/22 10:47:32;;;;;;;6.97;1.63;;;;;23.60;97824.00;;;;5053109;28;20139;-59
2023/04/22 10:50:09;;;;;;;2.28;1.75;;;;;23.60;97812.00;;;;5053162;28;20045;-58
2023/04/22 10:52:36;;;;;;;2.65;1.40;;;;;23.50;97809.00;;;;5054516;28;20461;-58
2023/04/22 10:55:03;;;;;;;2.88;1.33;;;;;23.30;97808.00;;;;5054559;28;20102;-59
2023/04/22 10:57:36;;;;;;;2.53;1.50;;;;;23.30;97824.00;;;;5054299;28;20037;-59
2023/04/22 11:00:20;;;;;;;;;;;;;23.30;97828.00;;;;5053440;28;20063;-58
2023/04/22 11:02:51;;;;;;;2.40;1.33;;;;;23.20;97829.00;;;;5054381;28;19920;-58
2023/04/22 11:05:26;;;;;;;1.63;1.50;;;;;23.20;97816.00;;;;5054467;28;20132;-59
2023/04/22 11:07:54;;;;;;;3.90;1.67;;;;;23.20;97824.00;;;;5054693;28;20080;-60
2023/04/22 11:10:42;;;;;;;3.58;1.50;;;;;23.20;97806.00;;;;5053298;28;20072;-59
2023/04/22 11:13:20;;;;;;;2.10;1.27;;;;;23.30;97816.00;;;;5054250;28;20445;-59
2023/04/22 11:15:49;;;;;;;2.22;1.30;;;;;23.50;97816.00;;;;5055148;28;20037;-60
2023/04/22 11:18:19;;;;;;;3.35;1.60;;;;;23.40;97814.00;;;;5054907;28;20037;-58
2023/04/22 11:20:48;;;;;;;2.38;1.20;;;;;23.50;97825.00;;;;5054337;28;20106;-58
2023/04/22 11:23:25;;;;;;;4.50;1.58;;;;;23.70;97816.00;;;;5053921;28;20455;-59
2023/04/22 11:25:59;;;;;;;2.80;1.20;;;;;23.80;97825.00;;;;5053825;28;20410;-57
2023/04/22 11:28:26;;;;;;;2.70;1.33;;;;;23.90;97831.00;;;;5034822;28;20056;-59
2023/04/22 11:31:01;;;;;;;2.40;1.70;;;;;23.90;97833.00;;;;5052856;28;20053;-58
2023/04/22 11:33:27;;;;;;;3.22;1.17;;;;;23.50;97832.00;;;;5054000;28;20052;-59
2023/04/22 11:35:56;;;;;;;2.08;1.40;;;;;23.30;97829.00;;;;5054664;28;20456;-58
2023/04/22 11:38:23;;;;;;;1.95;1.48;;;;;23.10;97840.00;;;;5054569;28;20045;-59
2023/04/22 11:40:49;;;;;;;2.05;1.70;;;;;23.00;97841.00;;;;5053406;28;20111;-58
2023/04/22 11:43:17;;;;;;;1.38;1.20;;;;;22.80;97836.00;;;;5053475;28;20045;-59
2023/04/22 11:45:44;;;;;;;2.55;1.65;;;;;22.50;97849.00;;;;5054346;28;20043;-58
2023/04/22 11:48:11;;;;;;;2.88;1.80;;;;;22.30;97844.00;;;;5054679;28;20048;-59
2023/04/22 11:50:40;;;;;;;2.47;1.50;;;;;22.20;97853.00;;;;5055116;28;20470;-58
2023/04/22 11:53:22;;;;;;;3.40;1.30;;;;;22.00;97860.00;;;;5059291;28;20106;-59
2023/04/22 11:55:50;;;;;;;4.72;2.03;;;;;21.70;97858.00;;;;5060032;28;20075;-60
2023/04/22 11:58:19;;;;;;;2.17;1.73;;;;;21.60;97861.00;;;;5060404;28;20067;-56
2023/04/22 12:00:51;;;;;;;4.95;1.67;;;;;21.50;97851.00;;;;5058057;28;20088;-58
2023/04/22 12:03:26;;;;;;;1.50;1.40;;;;;21.20;97852.00;;;;5061096;28;20094;-58
2023/04/22 12:05:56;;;;;;;4.30;1.63;;;;;21.00;97866.00;;;;5059389;28;20051;-56
2023/04/22 12:08:25;;;;;;;2.75;1.50;;;;;20.90;97865.00;;;;5060320;28;20041;-58
2023/04/22 12:10:54;;;;;;;2.60;1.70;;;;;20.80;97856.00;;;;5061383;28;20049;-59
2023/04/22 12:13:23;;;;;;;5.60;1.58;;;;;20.60;97866.00;;;;5061549;28;20424;-58
2023/04/22 12:15:58;;;;;;;3.03;1.60;;;;;20.40;97856.00;;;;5061051;28;20541;-57
2023/04/22 12:18:37;;;;;;;4.03;1.70;;;;;20.30;97854.00;;;;5054318;28;20045;-58
2023/04/22 12:21:11;;;;;;;4.50;1.70;;;;;20.10;97870.00;;;;5052946;28;20422;-59
2023/04/22 12:23:42;;;;;;;4.00;1.70;;;;;20.00;97872.00;;;;5051421;28;20083;-60
2023/04/22 12:26:09;;;;;;;2.67;1.50;;;;;19.90;97876.00;;;;5052624;28;20384;-59